createdAt,value
2022-08-01T00:03:53.601Z,3.20
2022-08-01T00:08:57.977Z,2.45
2022-08-01T00:14:00.733Z,2.30
2022-08-01T00:19:03.687Z,1.92
2022-08-01T00:24:08.515Z,1.95
2022-08-01T00:30:12.761Z,2.65
2022-08-01T00:34:41.112Z,2.95
2022-08-01T00:39:45.631Z,2.58
2022-08-01T00:44:48.659Z,2.97
2022-08-01T00:49:51.614Z,2.53
2022-08-01T00:54:55.881Z,2.58
2022-08-01T00:59:59.552Z,3.80
2022-08-01T01:05:03.034Z,4.13
2022-08-01T01:10:16.362Z,3.45
2022-08-01T01:15:24.005Z,4.60
2022-08-01T01:20:30.528Z,4.40
2022-08-01T01:25:57.124Z,4.15
2022-08-01T01:31:02.558Z,5.28
2022-08-01T01:36:11.837Z,4.18
2022-08-01T01:41:16.656Z,4.40
2022-08-01T01:46:24.225Z,4.80
2022-08-01T01:51:29.694Z,3.70
2022-08-01T01:56:33.118Z,3.05
2022-08-01T02:01:58.841Z,3.40
2022-08-01T02:07:01.229Z,2.25
2022-08-01T02:12:08.813Z,1.88
2022-08-01T02:17:14.612Z,2.42
2022-08-01T02:22:22.398Z,1.70
2022-08-01T02:27:27.393Z,1.90
2022-08-01T02:32:55.143Z,1.80
2022-08-01T02:38:00.016Z,1.30
2022-08-01T02:43:04.793Z,1.40
2022-08-01T02:48:16.176Z,1.40
2022-08-01T02:53:21.391Z,1.42
2022-08-01T02:58:29.335Z,1.60
2022-08-01T03:03:34.850Z,1.58
2022-08-01T03:08:38.482Z,1.48
2022-08-01T03:13:42.659Z,1.88
2022-08-01T03:18:47.572Z,1.73
2022-08-01T03:23:55.313Z,1.90
2022-08-01T03:29:01.506Z,2.78
2022-08-01T03:34:06.217Z,1.80
2022-08-01T03:39:11.360Z,2.20
2022-08-01T03:44:16.671Z,2.95
2022-08-01T03:49:24.493Z,2.55
2022-08-01T03:54:31.005Z,4.15
2022-08-01T03:59:34.350Z,4.20
2022-08-01T04:04:38.684Z,3.83
2022-08-01T04:09:41.532Z,4.88
2022-08-01T04:14:46.454Z,3.17
2022-08-01T04:19:50.587Z,3.83
2022-08-01T04:24:57.100Z,4.25
2022-08-01T04:30:01.178Z,4.00
2022-08-01T04:35:23.449Z,4.90
2022-08-01T04:40:32.104Z,3.85
2022-08-01T04:45:35.221Z,3.88
2022-08-01T04:50:39.457Z,3.33
2022-08-01T04:55:42.490Z,4.47
2022-08-01T05:00:45.362Z,3.27
2022-08-01T05:05:49.728Z,3.50
2022-08-01T05:10:53.733Z,3.00
2022-08-01T05:16:08.212Z,3.70
2022-08-01T05:21:12.649Z,4.70
2022-08-01T05:26:15.701Z,3.03
2022-08-01T05:31:18.733Z,3.70
2022-08-01T05:36:22.929Z,3.25
2022-08-01T05:41:25.924Z,3.40
2022-08-01T05:46:28.828Z,3.07
2022-08-01T05:51:33.227Z,3.83
2022-08-01T05:56:36.073Z,2.83
2022-08-01T06:01:39.155Z,3.20
2022-08-01T06:06:43.567Z,3.28
2022-08-01T06:11:46.473Z,3.53
2022-08-01T06:16:49.500Z,2.53
2022-08-01T06:21:55.015Z,4.07
2022-08-01T06:26:57.843Z,3.45
2022-08-01T06:32:00.753Z,2.22
2022-08-01T06:37:06.867Z,3.75
2022-08-01T06:42:10.510Z,3.85
2022-08-01T06:47:13.422Z,2.60
2022-08-01T06:52:17.958Z,2.58
2022-08-01T06:57:20.778Z,3.08
2022-08-01T07:02:23.700Z,3.08
2022-08-01T07:07:27.905Z,2.42
2022-08-01T07:12:30.942Z,2.35
2022-08-01T07:17:34.032Z,2.35
2022-08-01T07:22:38.401Z,2.22
2022-08-01T07:27:41.308Z,2.72
2022-08-01T07:32:44.138Z,3.50
2022-08-01T07:37:49.464Z,3.95
2022-08-01T07:42:52.516Z,1.92
2022-08-01T07:47:56.548Z,2.42
2022-08-01T07:53:00.790Z,2.17
2022-08-01T07:58:03.616Z,2.42
2022-08-01T08:03:06.464Z,1.63
2022-08-01T08:08:11.241Z,2.30
2022-08-01T08:13:14.174Z,1.55
2022-08-01T08:18:16.977Z,1.65
2022-08-01T08:23:42.519Z,2.60
2022-08-01T08:28:46.147Z,1.52
2022-08-01T08:33:48.912Z,2.38
2022-08-01T08:38:53.329Z,1.85
2022-08-01T08:44:04.797Z,1.50
2022-08-01T08:49:16.725Z,1.83
2022-08-01T08:54:27.725Z,1.40
2022-08-01T08:59:35.077Z,1.42
2022-08-01T09:04:41.237Z,1.00
2022-08-01T09:09:45.614Z,1.05
2022-08-01T09:14:54.374Z,1.60
2022-08-01T09:19:59.144Z,1.52
2022-08-01T09:25:07.947Z,1.67
2022-08-01T09:30:13.016Z,2.38
2022-08-01T09:35:30.002Z,1.73
2022-08-01T09:40:47.964Z,1.80
2022-08-01T09:45:55.267Z,1.55
2022-08-01T09:51:09.386Z,1.30
2022-08-01T09:56:15.191Z,3.03
2022-08-01T10:01:21.407Z,1.73
2022-08-01T10:06:27.198Z,1.30
2022-08-01T10:11:36.499Z,1.50
2022-08-01T10:16:41.684Z,2.25
2022-08-01T10:21:58.001Z,1.70
2022-08-01T10:27:12.368Z,1.13
2022-08-01T10:32:15.813Z,1.17
2022-08-01T10:37:27.542Z,1.45
2022-08-01T10:42:32.702Z,1.50
2022-08-01T10:47:50.705Z,1.17
2022-08-01T10:53:31.892Z,1.40
2022-08-01T10:58:49.461Z,1.13
2022-08-01T11:04:01.871Z,1.00
2022-08-01T11:09:07.822Z,1.52
2022-08-01T11:14:13.469Z,1.38
2022-08-01T11:19:17.468Z,2.83
2022-08-01T11:24:58.941Z,1.20
2022-08-01T11:30:27.041Z,2.05
2022-08-01T11:35:30.810Z,1.65
2022-08-01T11:40:33.676Z,1.05
2022-08-01T11:45:51.217Z,1.33
2022-08-01T11:50:56.173Z,1.08
2022-08-01T11:56:00.590Z,1.33
2022-08-01T12:01:04.835Z,1.63
2022-08-01T12:06:09.972Z,1.42
2022-08-01T12:11:12.991Z,2.78
2022-08-01T12:16:18.111Z,1.95
2022-08-01T12:21:23.708Z,1.42
2022-08-01T12:26:41.076Z,4.53
2022-08-01T12:31:45.200Z,2.95
2022-08-01T12:37:17.651Z,1.13
2022-08-01T12:42:20.822Z,1.10
2022-08-01T12:47:25.833Z,1.25
2022-08-01T12:52:28.732Z,1.10
2022-08-01T12:57:43.324Z,1.50
2022-08-01T13:02:49.950Z,1.20
2022-08-01T13:07:53.333Z,1.10
2022-08-01T13:12:57.750Z,1.40
2022-08-01T13:18:03.446Z,1.05
2022-08-01T13:23:14.995Z,1.08
2022-08-01T13:28:19.105Z,0.80
2022-08-01T13:33:23.537Z,1.33
2022-08-01T13:38:45.946Z,0.82
2022-08-01T13:43:58.732Z,1.17
2022-08-01T13:49:15.946Z,1.27
2022-08-01T13:54:19.606Z,1.05
2022-08-01T13:59:24.620Z,1.77
2022-08-01T14:04:28.862Z,0.80
2022-08-01T14:09:32.592Z,1.52
2022-08-01T14:14:35.581Z,0.98
2022-08-01T14:19:43.359Z,1.15
2022-08-01T14:24:50.063Z,1.05
2022-08-01T14:30:03.315Z,0.95
2022-08-01T14:35:09.320Z,1.23
2022-08-01T14:40:12.519Z,1.45
2022-08-01T14:45:15.801Z,0.90
2022-08-01T14:50:20.015Z,1.35
2022-08-01T14:55:26.000Z,1.25
2022-08-01T15:00:28.994Z,1.05
2022-08-01T15:05:33.863Z,0.98
2022-08-01T15:10:36.766Z,0.90
2022-08-01T15:15:42.589Z,1.10
2022-08-01T15:20:48.448Z,0.70
2022-08-01T15:25:51.360Z,0.90
2022-08-01T15:30:54.196Z,1.50
2022-08-01T15:35:58.301Z,0.90
2022-08-01T15:41:01.661Z,1.98
2022-08-01T15:46:05.928Z,1.55
2022-08-01T15:51:10.184Z,0.77
2022-08-01T15:56:12.971Z,0.80
2022-08-01T16:01:17.882Z,0.80
2022-08-01T16:06:22.210Z,1.30
2022-08-01T16:11:27.821Z,1.08
2022-08-01T16:16:35.010Z,0.77
2022-08-01T16:21:39.157Z,0.57
2022-08-01T16:26:43.144Z,0.80
2022-08-01T16:31:55.733Z,0.80
2022-08-01T16:37:10.288Z,0.80
2022-08-01T16:42:13.085Z,0.63
2022-08-01T16:47:15.879Z,0.90
2022-08-01T16:52:20.053Z,0.60
2022-08-01T16:57:22.848Z,0.80
2022-08-01T17:02:25.730Z,0.73
2022-08-01T17:07:30.052Z,1.23
2022-08-01T17:12:35.398Z,0.85
2022-08-01T17:17:41.109Z,0.80
2022-08-01T17:22:49.947Z,0.65
2022-08-01T17:27:53.827Z,0.60
2022-08-01T17:32:56.740Z,0.98
2022-08-01T17:38:01.044Z,3.10
2022-08-01T17:43:03.865Z,0.90
2022-08-01T17:48:16.071Z,1.73
2022-08-01T17:53:24.073Z,1.35
2022-08-01T17:58:49.549Z,1.42
2022-08-01T18:03:50.146Z,1.30
2022-08-01T18:08:59.837Z,1.10
2022-08-01T18:14:07.389Z,0.88
2022-08-01T18:19:10.202Z,1.02
2022-08-01T18:24:16.499Z,7.35
2022-08-01T18:29:23.284Z,1.45
2022-08-01T18:34:44.599Z,0.80
2022-08-01T18:39:50.284Z,0.95
2022-08-01T18:44:55.250Z,1.20
2022-08-01T18:49:58.142Z,1.45
2022-08-01T18:55:02.381Z,0.90
2022-08-01T19:00:07.380Z,1.15
2022-08-01T19:05:10.817Z,1.27
2022-08-01T19:10:17.153Z,2.15
2022-08-01T19:15:20.332Z,0.88
2022-08-01T19:20:25.578Z,0.70
2022-08-01T19:25:29.749Z,1.70
2022-08-01T19:30:33.871Z,1.35
2022-08-01T19:35:37.391Z,1.42
2022-08-01T19:40:41.829Z,2.90
2022-08-01T19:45:48.561Z,1.70
2022-08-01T19:50:52.525Z,1.38
2022-08-01T19:55:57.140Z,1.20
2022-08-01T20:00:59.959Z,0.93
2022-08-01T20:06:05.940Z,1.50
2022-08-01T20:11:18.853Z,1.10
2022-08-01T20:16:25.560Z,1.25
2022-08-01T20:21:29.074Z,1.35
2022-08-01T20:26:33.918Z,1.45
2022-08-01T20:31:43.817Z,1.67
2022-08-01T20:36:56.628Z,1.30
2022-08-01T20:42:02.642Z,1.67
2022-08-01T20:47:06.072Z,1.50
2022-08-01T20:52:12.107Z,1.13
2022-08-01T20:57:25.274Z,1.42
2022-08-01T21:02:34.223Z,1.45
2022-08-01T21:07:40.386Z,0.80
2022-08-01T21:12:49.666Z,1.25
2022-08-01T21:18:00.299Z,1.55
2022-08-01T21:23:16.062Z,2.63
2022-08-01T21:28:22.055Z,2.00
2022-08-01T21:33:25.588Z,1.80
2022-08-01T21:38:31.996Z,1.75
2022-08-01T21:43:38.688Z,1.70
2022-08-01T21:48:42.491Z,1.73
2022-08-01T21:53:50.226Z,1.48
2022-08-01T21:58:59.404Z,1.38
2022-08-01T22:04:04.594Z,1.30
2022-08-01T22:09:07.955Z,1.20
2022-08-01T22:14:14.973Z,1.20
2022-08-01T22:19:43.757Z,1.10
2022-08-01T22:24:42.316Z,2.47
2022-08-01T22:29:47.315Z,1.13
2022-08-01T22:34:50.323Z,0.83
2022-08-01T22:39:53.357Z,2.78
2022-08-01T22:45:03.836Z,1.40
2022-08-01T22:50:08.455Z,1.20
2022-08-01T22:55:12.335Z,1.03
2022-08-01T23:00:17.081Z,1.03
2022-08-01T23:05:22.706Z,1.63
2022-08-01T23:10:26.866Z,1.00
2022-08-01T23:15:31.608Z,0.90
2022-08-01T23:20:35.368Z,1.48
2022-08-01T23:25:38.628Z,1.10
2022-08-01T23:30:42.962Z,1.67
2022-08-01T23:35:46.064Z,1.02
2022-08-01T23:40:50.085Z,0.90
2022-08-01T23:46:02.542Z,1.43
2022-08-01T23:51:09.457Z,1.37
2022-08-01T23:56:16.878Z,1.00
